Time;durP1;ratioP1;P1;durP2;ratioP2;P2;SDS_P1;SDS_P2;PMS_P1;PMS_P2;Temp;Humidity;BMP_temperature;BMP_pressure;BME280_temperature;BME280_humidity;BME280_pressure;Samples;Min_cycle;Max_cycle;Signal;HPM_P1;HPM_P2
2021/09/26 09:18:50;;;;;;;7.35;6.13;;;;;;;21.50;64.24;99980.69;1087282;54;20039;-79
2021/09/26 09:20:19;;;;;;;8.73;6.13;;;;;;;21.61;64.38;99977.31;1087454;47;20038;-80
2021/09/26 09:23:44;;;;;;;7.97;5.65;;;;;;;22.03;63.51;99962.34;1087971;46;20047;-80
2021/09/26 09:27:02;;;;;;;;;;;;;;;;;;;;;
2021/09/26 09:53:45;;;;;;;8.27;4.15;;;;;;;23.73;58.53;99944.63;1087210;54;20023;-79
2021/09/26 10:29:01;;;;;;;9.02;5.63;;;;;;;23.39;59.97;99947.00;1086769;54;20039;-80
2021/09/26 10:37:43;;;;;;;7.32;4.65;;;;;;;23.40;60.14;99943.22;1087160;54;20049;-80
2021/09/26 10:39:10;;;;;;;7.13;4.63;;;;;;;23.36;59.98;99946.44;1088102;47;20034;-81
2021/09/26 10:40:15;;;;;;;7.90;4.53;;;;;;;23.25;60.53;99939.03;1087854;47;20031;-79
2021/09/26 10:41:20;;;;;;;7.07;4.88;;;;;;;23.25;60.83;99935.47;1087487;54;20451;-80
2021/09/26 10:42:24;;;;;;;7.95;5.07;;;;;;;23.45;59.89;99936.00;1091058;47;20066;-81
2021/09/26 10:43:31;;;;;;;9.90;5.20;;;;;;;23.38;60.21;99929.84;1087598;54;20038;-79
2021/09/26 10:44:42;;;;;;;7.18;4.60;;;;;;;23.37;60.40;99933.63;1089064;47;20039;-79
2021/09/26 10:45:43;;;;;;;7.45;4.50;;;;;;;23.44;60.26;99928.88;1088541;47;20093;-79
2021/09/26 10:47:07;;;;;;;8.27;4.85;;;;;;;23.48;60.02;99923.78;1088576;47;20030;-80
2021/09/26 10:48:09;;;;;;;8.20;5.45;;;;;;;23.44;60.11;99914.44;1088420;47;20038;-79
2021/09/26 10:49:15;;;;;;;8.25;5.82;;;;;;;23.45;60.14;99925.09;1087533;54;20042;-79
2021/09/26 10:50:23;;;;;;;9.93;6.40;;;;;;;23.47;60.23;99924.88;1089859;47;20038;-79
2021/09/26 10:51:46;;;;;;;9.77;6.55;;;;;;;23.42;60.46;99924.75;1087755;47;20039;-80
2021/09/26 10:52:52;;;;;;;10.38;7.10;;;;;;;23.39;60.74;99920.59;1088132;47;20837;-80
2021/09/26 10:54:24;;;;;;;9.38;6.45;;;;;;;23.37;60.65;99928.16;1087546;54;20031;-79
2021/09/26 10:55:32;;;;;;;9.25;6.35;;;;;;;23.33;61.24;99922.34;1087305;54;20046;-79
2021/09/26 10:56:34;;;;;;;9.63;6.03;;;;;;;23.44;60.46;99934.34;1087803;54;20168;-79
2021/09/26 10:57:38;;;;;;;7.47;5.60;;;;;;;23.43;60.48;99924.50;1087582;54;20037;-80
2021/09/26 10:58:57;;;;;;;8.80;5.45;;;;;;;23.39;60.61;99923.31;1087889;54;20082;-79
2021/09/26 11:00:06;;;;;;;8.50;5.70;;;;;;;23.37;60.48;99925.44;1088262;46;20022;-79
2021/09/26 11:01:11;;;;;;;8.68;5.03;;;;;;;23.42;60.44;99931.03;1087825;54;20034;-79
2021/09/26 11:02:34;;;;;;;9.55;6.13;;;;;;;23.36;60.53;99931.94;1087927;54;20031;-80
2021/09/26 11:03:42;;;;;;;12.45;5.63;;;;;;;23.04;61.14;99926.72;1087759;54;20031;-78
2021/09/26 11:04:43;;;;;;;10.10;5.65;;;;;;;23.30;60.90;99917.34;1088740;46;20018;-79
2021/09/26 11:05:49;;;;;;;8.80;5.93;;;;;;;23.38;60.63;99921.66;1087792;54;20090;-79
2021/09/26 11:07:10;;;;;;;11.05;5.93;;;;;;;23.33;60.54;99919.63;1087962;54;20065;-79
2021/09/26 11:08:20;;;;;;;9.43;5.93;;;;;;;23.42;60.24;99920.13;1087649;54;20033;-79
2021/09/26 11:09:24;;;;;;;11.80;5.15;;;;;;;23.38;60.28;99924.38;1087669;54;20019;-79
2021/09/26 11:10:47;;;;;;;7.45;5.60;;;;;;;23.36;60.07;99915.59;1087470;54;20033;-78
2021/09/26 11:11:52;;;;;;;8.52;5.32;;;;;;;23.26;60.55;99920.78;1087922;54;20034;-80
2021/09/26 11:13:07;;;;;;;7.50;5.15;;;;;;;23.35;59.57;99925.69;1087694;54;20033;-78
2021/09/26 11:14:12;;;;;;;8.05;5.53;;;;;;;23.27;59.87;99925.16;1090132;39;20275;-77
2021/09/26 11:15:19;;;;;;;9.68;5.97;;;;;;;23.31;59.74;99924.47;1088612;46;20030;-78
2021/09/26 11:16:23;;;;;;;8.25;5.43;;;;;;;23.31;59.70;99923.66;1087569;54;20095;-77
2021/09/26 11:17:49;;;;;;;7.75;5.68;;;;;;;23.33;59.06;99926.97;1088544;46;20038;-77
2021/09/26 11:19:03;;;;;;;7.25;5.05;;;;;;;23.36;58.68;99916.44;1087953;46;20094;-80
2021/09/26 11:20:08;;;;;;;9.00;5.50;;;;;;;23.26;58.94;99923.50;1087782;54;20050;-79
2021/09/26 11:21:45;;;;;;;7.70;5.50;;;;;;;23.30;58.23;99914.63;1087527;54;20042;-77
2021/09/26 11:22:49;;;;;;;5.63;4.55;;;;;;;23.31;58.59;99923.66;1087863;54;20046;-81
2021/09/26 11:23:59;;;;;;;7.53;5.50;;;;;;;23.14;58.29;99920.69;1087823;54;20061;-77
2021/09/26 11:25:13;;;;;;;7.50;5.70;;;;;;;23.22;57.66;99923.13;1087203;54;20042;-80
2021/09/26 11:26:24;;;;;;;8.30;5.32;;;;;;;23.24;57.76;99925.66;1086970;54;20034;-79
2021/09/26 11:27:40;;;;;;;7.78;5.60;;;;;;;23.09;57.13;99917.84;1089926;46;20761;-79
2021/09/26 11:28:58;;;;;;;8.57;5.93;;;;;;;23.05;57.85;99920.19;1087528;54;20046;-78
2021/09/26 11:31:56;;;;;;;7.57;5.10;;;;;;;23.20;57.27;99917.91;1087347;54;20023;-81
2021/09/26 11:35:03;;;;;;;10.32;5.85;;;;;;;23.13;57.17;99910.84;1088031;46;20090;-78
2021/09/26 11:36:20;;;;;;;6.88;5.15;;;;;;;23.21;56.79;99905.09;1089274;39;20301;-78
2021/09/26 11:37:49;;;;;;;8.30;5.70;;;;;;;22.86;57.70;99905.78;1088007;46;20094;-78
2021/09/26 11:38:55;;;;;;;8.98;6.47;;;;;;;23.07;57.67;99912.59;1086327;54;20034;-79
2021/09/26 11:40:00;;;;;;;8.00;5.78;;;;;;;23.10;57.32;99914.88;1088024;54;20034;-81
2021/09/26 11:41:32;;;;;;;7.28;5.43;;;;;;;23.18;56.71;99906.41;1087919;54;20057;-79
2021/09/26 11:42:39;;;;;;;8.77;5.80;;;;;;;23.02;56.84;99907.03;1087886;54;20073;-81
2021/09/26 11:44:05;;;;;;;7.80;5.88;;;;;;;23.19;56.83;99909.97;1087656;54;20046;-79
2021/09/26 11:45:10;;;;;;;8.77;5.45;;;;;;;23.23;56.89;99896.72;1087899;54;20038;-80
2021/09/26 11:46:40;;;;;;;7.70;5.75;;;;;;;23.03;56.29;99900.53;1088014;54;20065;-82
2021/09/26 11:47:42;;;;;;;9.03;6.07;;;;;;;22.98;56.81;99890.31;1088075;54;20038;-80
2021/09/26 11:50:13;;;;;;;9.82;6.63;;;;;;;23.31;55.90;99888.19;1089011;39;20327;-81
2021/09/26 11:51:19;;;;;;;8.43;6.00;;;;;;;23.41;55.63;99887.63;1089317;46;20046;-80
2021/09/26 11:52:20;;;;;;;6.82;5.68;;;;;;;23.51;55.56;99883.28;1087874;54;20034;-81
2021/09/26 11:53:26;;;;;;;8.55;5.63;;;;;;;23.66;55.18;99892.88;1087870;54;20042;-80
2021/09/26 11:54:32;;;;;;;6.78;4.97;;;;;;;23.73;54.84;99888.16;1088116;54;20039;-82
2021/09/26 11:55:35;;;;;;;6.32;4.80;;;;;;;23.78;54.85;99888.28;1087979;54;20576;-81
2021/09/26 11:56:57;;;;;;;7.50;4.70;;;;;;;23.68;54.71;99891.56;1087504;46;20041;-79
2021/09/26 11:58:00;;;;;;;6.80;4.80;;;;;;;23.80;54.64;99891.63;1086763;46;20039;-79
2021/09/26 11:59:25;;;;;;;6.38;4.88;;;;;;;23.61;54.67;99893.59;1086151;54;20102;-80
2021/09/26 12:00:28;;;;;;;7.18;5.00;;;;;;;23.70;54.40;99885.91;1086780;54;20049;-80
2021/09/26 12:01:44;;;;;;;6.63;5.07;;;;;;;23.73;53.89;99885.41;1086621;54;20057;-81
2021/09/26 12:02:46;;;;;;;7.35;5.72;;;;;;;23.75;54.08;99890.66;1087060;54;20122;-81
2021/09/26 12:04:17;;;;;;;5.93;4.50;;;;;;;23.63;53.51;99879.72;1086949;47;20041;-81
2021/09/26 12:05:33;;;;;;;7.05;5.30;;;;;;;23.59;53.83;99889.44;1087028;54;20026;-80
2021/09/26 12:06:38;;;;;;;6.43;5.07;;;;;;;23.80;53.62;99880.69;1086486;54;20037;-81
2021/09/26 12:07:58;;;;;;;7.28;4.65;;;;;;;23.71;53.35;99867.63;1086052;54;20042;-79
2021/09/26 12:09:02;;;;;;;;;;;;;;;23.44;53.52;99871.63;1087092;54;20038;-80
2021/09/26 12:11:53;;;;;;;7.28;6.00;;;;;;;23.41;54.12;99863.06;1086843;54;20042;-80
2021/09/26 12:12:55;;;;;;;7.68;6.07;;;;;;;23.74;53.68;99869.88;1086094;54;20030;-80
2021/09/26 12:14:11;;;;;;;8.88;6.20;;;;;;;23.60;53.71;99864.66;1086049;54;20090;-81
2021/09/26 12:15:14;;;;;;;7.32;5.13;;;;;;;23.86;53.18;99859.78;1085974;54;20062;-80
2021/09/26 12:16:36;;;;;;;8.15;5.60;;;;;;;23.91;52.91;99859.06;1086499;54;20061;-79
2021/09/26 12:17:43;;;;;;;6.28;5.05;;;;;;;23.66;52.86;99854.69;1085887;54;20030;-80
2021/09/26 12:18:54;;;;;;;6.30;5.18;;;;;;;23.77;52.72;99851.13;1086694;54;20057;-81
2021/09/26 12:20:22;;;;;;;6.72;4.93;;;;;;;23.88;52.38;99845.94;1087912;54;20041;-82
2021/09/26 12:21:30;;;;;;;6.68;5.03;;;;;;;23.62;53.02;99848.03;1093601;39;20539;-80
2021/09/26 12:22:34;;;;;;;6.40;5.00;;;;;;;23.81;53.08;99855.03;1086528;54;20038;-83
2021/09/26 12:24:07;;;;;;;6.53;4.93;;;;;;;23.76;53.17;99859.53;1087754;46;20058;-80
2021/09/26 12:25:16;;;;;;;7.68;4.85;;;;;;;23.76;52.97;99860.41;1086264;54;20041;-80
2021/09/26 12:26:27;;;;;;;5.88;5.00;;;;;;;23.87;53.21;99860.63;1086937;54;20034;-79
2021/09/26 12:27:55;;;;;;;6.28;5.13;;;;;;;23.76;53.13;99863.13;1086865;54;20046;-82
2021/09/26 12:29:08;;;;;;;6.32;5.03;;;;;;;23.62;53.44;99870.69;1086056;54;20038;-80
2021/09/26 12:30:15;;;;;;;7.20;5.47;;;;;;;23.79;53.15;99862.66;1087046;46;20038;-79
2021/09/26 12:31:20;;;;;;;6.20;4.57;;;;;;;23.77;53.19;99861.22;1085806;54;20049;-81
2021/09/26 12:32:26;;;;;;;7.07;5.00;;;;;;;23.73;53.56;99866.31;1086104;46;20039;-80
2021/09/26 12:33:35;;;;;;;6.28;5.05;;;;;;;23.89;53.11;99851.13;1085930;54;20635;-79
2021/09/26 12:34:41;;;;;;;6.10;5.07;;;;;;;23.92;53.13;99853.41;1086273;54;20042;-81
2021/09/26 12:35:52;;;;;;;8.10;5.50;;;;;;;23.98;53.04;99854.38;1087276;54;20611;-80
2021/09/26 12:36:57;;;;;;;5.65;4.30;;;;;;;24.05;52.99;99851.50;1087648;54;20034;-80
2021/09/26 12:38:09;;;;;;;6.22;4.30;;;;;;;24.09;52.99;99853.50;1087361;54;20019;-82
2021/09/26 12:39:31;;;;;;;6.18;4.88;;;;;;;23.97;53.24;99853.53;1087446;54;20039;-80
2021/09/26 12:40:37;;;;;;;5.88;4.60;;;;;;;24.16;52.77;99849.84;1087663;54;20023;-80
2021/09/26 12:41:41;;;;;;;6.55;5.20;;;;;;;24.18;53.05;99850.44;1087729;54;20565;-80
2021/09/26 12:42:54;;;;;;;6.63;5.20;;;;;;;24.17;52.97;99854.25;1087827;46;20046;-80
2021/09/26 12:44:05;;;;;;;7.63;5.40;;;;;;;24.25;53.02;99853.88;1087787;54;20038;-80
2021/09/26 12:45:22;;;;;;;6.90;5.15;;;;;;;24.20;53.12;99857.31;1087852;54;20042;-80
2021/09/26 12:46:29;;;;;;;8.00;4.90;;;;;;;24.22;52.90;99851.59;1087633;54;20038;-80
2021/09/26 12:47:31;;;;;;;6.72;5.32;;;;;;;24.30;53.12;99854.81;1087801;54;20038;-80
2021/09/26 12:48:42;;;;;;;6.28;4.85;;;;;;;24.23;53.10;99845.06;1087536;54;20034;-80
2021/09/26 12:49:52;;;;;;;7.57;4.82;;;;;;;24.28;53.21;99850.63;1091388;39;20571;-81
2021/09/26 12:51:00;;;;;;;6.80;4.25;;;;;;;24.34;53.00;99848.84;1087721;54;20062;-80
2021/09/26 12:52:29;;;;;;;7.32;5.00;;;;;;;24.28;53.12;99845.19;1087826;54;20026;-81
2021/09/26 12:53:37;;;;;;;7.05;4.82;;;;;;;24.25;53.13;99840.22;1087671;54;20050;-81
2021/09/26 12:54:59;;;;;;;;;;;;;;;;;;;;;
2021/09/26 12:56:04;;;;;;;6.70;4.80;;;;;;;24.34;53.32;99846.97;1087819;54;20020;-79
2021/09/26 12:57:12;;;;;;;6.85;5.32;;;;;;;24.35;53.15;99840.44;1087479;54;20077;-80
2021/09/26 12:58:21;;;;;;;6.20;5.03;;;;;;;24.41;53.25;99838.63;1087437;54;20039;-80
2021/09/26 12:59:29;;;;;;;6.35;4.97;;;;;;;24.50;53.20;99831.72;1087645;54;20028;-80
2021/09/26 13:00:37;;;;;;;6.03;5.00;;;;;;;24.47;53.04;99843.13;1087389;54;20043;-81
2021/09/26 13:01:39;;;;;;;7.20;5.05;;;;;;;24.48;53.28;99838.47;1087331;54;20078;-79
2021/09/26 13:03:06;;;;;;;7.13;4.75;;;;;;;24.48;53.21;99828.41;1087586;54;20034;-81
2021/09/26 13:04:17;;;;;;;5.68;4.45;;;;;;;24.42;53.01;99830.19;1087657;54;20038;-80
2021/09/26 13:05:30;;;;;;;5.80;4.63;;;;;;;24.39;53.32;99830.66;1087734;54;20592;-79
2021/09/26 13:06:37;;;;;;;6.50;5.07;;;;;;;24.55;53.23;99822.81;1087485;54;20033;-79
2021/09/26 13:07:41;;;;;;;6.43;5.15;;;;;;;24.59;53.26;99826.69;1087500;54;20030;-81
2021/09/26 13:08:45;;;;;;;6.63;4.63;;;;;;;24.66;52.98;99834.75;1087614;54;20053;-81
2021/09/26 13:09:57;;;;;;;6.30;4.57;;;;;;;24.65;52.94;99819.44;1089581;39;20535;-80
2021/09/26 13:11:03;;;;;;;5.47;4.10;;;;;;;24.70;52.83;99820.38;1087411;54;20039;-82
2021/09/26 13:12:25;;;;;;;5.57;4.38;;;;;;;24.66;53.04;99819.16;1087498;54;20030;-80
2021/09/26 13:13:31;;;;;;;6.03;4.47;;;;;;;24.72;53.02;99823.72;1087503;54;20041;-81
2021/09/26 13:14:38;;;;;;;6.13;4.60;;;;;;;24.71;52.85;99815.75;1087659;54;20046;-81
2021/09/26 13:15:42;;;;;;;5.75;4.60;;;;;;;24.83;52.72;99818.44;1087458;54;20034;-81
2021/09/26 13:16:48;;;;;;;6.07;4.80;;;;;;;24.81;52.75;99817.84;1089029;39;20555;-81
2021/09/26 13:17:54;;;;;;;6.00;4.68;;;;;;;24.84;52.71;99817.38;1087411;54;20061;-80
2021/09/26 13:18:57;;;;;;;7.97;5.13;;;;;;;24.75;53.06;99812.28;1087210;54;20039;-80
2021/09/26 13:20:20;;;;;;;6.10;4.50;;;;;;;24.83;52.79;99812.97;1087573;54;20034;-81
2021/09/26 13:21:35;;;;;;;6.55;4.72;;;;;;;24.79;52.53;99820.00;1087276;54;20065;-81
2021/09/26 13:22:39;;;;;;;5.90;4.78;;;;;;;24.82;52.97;99819.50;1087137;54;20034;-81
2021/09/26 13:23:42;;;;;;;6.90;4.72;;;;;;;24.83;52.99;99813.78;1087453;54;20034;-83
2021/09/26 13:24:51;;;;;;;6.32;4.80;;;;;;;24.93;52.54;99818.63;1087516;54;20034;-81
2021/09/26 13:25:57;;;;;;;7.32;5.10;;;;;;;24.88;52.63;99816.63;1087481;54;20034;-82
2021/09/26 13:27:17;;;;;;;7.97;4.90;;;;;;;24.93;52.04;99813.16;1087527;54;20066;-81
2021/09/26 13:28:20;;;;;;;6.47;4.78;;;;;;;24.92;52.22;99814.25;1087553;54;20042;-81
2021/09/26 13:29:29;;;;;;;6.53;5.43;;;;;;;24.88;52.65;99818.53;1087499;54;20654;-80
2021/09/26 13:30:41;;;;;;;8.75;5.43;;;;;;;24.90;52.33;99821.84;1087373;54;20038;-81
2021/09/26 13:31:49;;;;;;;6.32;4.70;;;;;;;24.91;52.40;99823.50;1087362;54;20065;-81
2021/09/26 13:32:59;;;;;;;6.50;5.07;;;;;;;24.87;52.65;99820.44;1087328;54;20030;-81
2021/09/26 13:34:10;;;;;;;6.05;4.72;;;;;;;24.85;52.96;99827.19;1087364;54;20035;-81
2021/09/26 13:35:17;;;;;;;6.13;4.70;;;;;;;24.84;52.51;99820.91;1087347;54;20126;-81
2021/09/26 13:36:34;;;;;;;7.35;5.10;;;;;;;24.80;52.82;99811.53;1087423;54;20049;-82
2021/09/26 13:37:43;;;;;;;7.25;5.57;;;;;;;24.81;53.02;99815.94;1087152;54;20038;-82
2021/09/26 13:39:03;;;;;;;6.38;4.90;;;;;;;24.84;52.60;99815.44;1087486;54;20039;-82
2021/09/26 13:40:36;;;;;;;6.53;4.88;;;;;;;24.77;53.29;99809.31;1086610;54;20042;-80
2021/09/26 13:41:43;;;;;;;6.15;5.03;;;;;;;24.84;53.46;99815.44;1085821;54;20042;-80
2021/09/26 13:42:56;;;;;;;6.68;5.10;;;;;;;24.87;53.29;99812.25;1085508;54;20079;-79
2021/09/26 13:44:05;;;;;;;6.75;5.20;;;;;;;24.80;53.57;99818.91;1086173;39;20430;-80
2021/09/26 13:45:15;;;;;;;6.75;5.32;;;;;;;24.69;53.86;99810.53;1085659;54;20046;-81
2021/09/26 13:46:17;;;;;;;;;;;;;;;24.49;54.47;99812.81;1086010;54;20082;-80
2021/09/26 13:47:22;;;;;;;7.60;6.13;;;;;;;24.66;54.32;99808.25;1085238;54;19947;-80
2021/09/26 13:48:24;;;;;;;6.50;5.35;;;;;;;24.77;53.79;99809.31;1084858;54;20038;-81
2021/09/26 13:49:28;;;;;;;7.43;5.63;;;;;;;24.80;53.52;99806.06;1085975;54;20632;-79
2021/09/26 13:50:33;;;;;;;8.23;5.60;;;;;;;24.68;54.00;99811.59;1086310;39;20433;-79
2021/09/26 13:51:39;;;;;;;7.38;5.50;;;;;;;24.71;53.72;99810.28;1085034;54;20065;-79
2021/09/26 13:52:44;;;;;;;6.90;5.07;;;;;;;24.79;53.92;99807.19;1084870;54;20042;-80
2021/09/26 13:53:46;;;;;;;7.45;5.55;;;;;;;24.83;53.70;99799.31;1084898;47;20034;-80
2021/09/26 13:54:50;;;;;;;7.25;5.55;;;;;;;24.79;53.88;99800.84;1085138;54;20612;-78
2021/09/26 13:55:55;;;;;;;7.60;5.75;;;;;;;24.74;53.54;99802.44;1085134;54;20038;-80
2021/09/26 13:56:59;;;;;;;6.70;5.40;;;;;;;24.75;53.67;99798.59;1085249;54;20041;-79
2021/09/26 13:58:02;;;;;;;7.38;5.28;;;;;;;24.84;53.66;99795.50;1085251;54;20042;-79
2021/09/26 13:59:07;;;;;;;6.32;5.40;;;;;;;24.79;53.62;99789.94;1084832;54;20061;-79
2021/09/26 14:00:15;;;;;;;6.65;5.28;;;;;;;24.78;53.92;99797.31;1084753;54;20043;-80
2021/09/26 14:01:17;;;;;;;8.20;5.18;;;;;;;24.62;54.35;99801.63;1086190;39;20570;-80
2021/09/26 14:02:22;;;;;;;6.47;5.05;;;;;;;24.66;54.21;99800.03;1085065;54;20039;-80
2021/09/26 14:03:23;;;;;;;6.60;5.57;;;;;;;24.53;54.61;99803.09;1086639;46;20082;-81
2021/09/26 14:04:28;;;;;;;7.65;5.68;;;;;;;24.51;54.82;99805.22;1085713;54;20069;-80
2021/09/26 14:05:29;;;;;;;7.18;5.53;;;;;;;24.54;54.38;99805.56;1085697;54;20038;-81
2021/09/26 14:06:35;;;;;;;7.30;5.82;;;;;;;24.47;54.58;99802.16;1085560;54;20039;-82
2021/09/26 14:07:36;;;;;;;6.95;5.65;;;;;;;24.58;54.39;99803.16;1085059;54;20043;-79
2021/09/26 14:08:41;;;;;;;7.78;5.57;;;;;;;24.56;54.47;99803.44;1085721;54;20065;-80
2021/09/26 14:09:45;;;;;;;6.70;5.03;;;;;;;24.59;54.34;99802.09;1085084;54;20074;-80
2021/09/26 14:10:51;;;;;;;6.40;4.75;;;;;;;24.61;54.38;99802.69;1084779;54;20065;-79
2021/09/26 14:11:58;;;;;;;7.50;5.72;;;;;;;24.40;55.87;99810.47;1085617;54;20034;-80
2021/09/26 14:13:02;;;;;;;10.00;5.65;;;;;;;23.94;59.51;99815.81;1085693;54;20034;-80
2021/09/26 14:14:06;;;;;;;12.35;6.57;;;;;;;23.44;61.86;99832.63;1086556;54;20035;-81
2021/09/26 14:15:09;;;;;;;13.63;7.88;;;;;;;22.92;64.59;99850.34;1086644;54;20065;-79
2021/09/26 14:16:15;;;;;;;15.00;7.85;;;;;;;22.40;67.41;99867.97;1085082;54;20039;-80
2021/09/26 14:17:20;;;;;;;10.68;7.93;;;;;;;21.92;69.89;99874.09;1086760;47;20106;-81
2021/09/26 14:18:22;;;;;;;16.38;9.13;;;;;;;21.61;71.16;99879.41;1087050;54;20038;-81
2021/09/26 14:19:36;;;;;;;11.73;8.73;;;;;;;21.28;73.42;99879.63;1087461;54;20022;-82
2021/09/26 14:20:38;;;;;;;12.77;10.07;;;;;;;20.76;75.39;99888.66;1089970;47;20090;-82
2021/09/26 14:21:46;;;;;;;16.25;10.00;;;;;;;20.29;79.50;99901.53;1088033;54;20122;-80
2021/09/26 14:22:47;;;;;;;19.25;10.93;;;;;;;20.29;78.43;99885.25;1087507;54;20019;-80
2021/09/26 14:27:22;;;;;;;22.75;17.48;;;;;;;20.20;79.33;99857.53;1086583;54;20022;-79
2021/09/26 14:28:24;;;;;;;15.05;11.95;;;;;;;20.15;79.05;99857.31;1087196;54;20611;-82
2021/09/26 14:29:28;;;;;;;9.95;8.10;;;;;;;20.10;79.37;99861.50;1087341;54;20038;-79
2021/09/26 14:30:30;;;;;;;8.65;5.65;;;;;;;19.97;81.00;99847.97;1087539;54;20769;-81
2021/09/26 14:31:34;;;;;;;10.18;4.93;;;;;;;19.93;81.21;99836.72;1087605;54;20044;-80
2021/09/26 14:32:36;;;;;;;6.57;4.32;;;;;;;19.86;80.53;99833.19;1088193;54;20034;-83
2021/09/26 14:33:41;;;;;;;7.38;4.00;;;;;;;19.84;80.66;99831.69;1088284;54;20026;-82
2021/09/26 14:34:46;;;;;;;7.28;3.78;;;;;;;19.62;82.75;99834.63;1088057;54;20037;-82
2021/09/26 14:35:53;;;;;;;8.10;4.47;;;;;;;19.55;83.65;99839.22;1088172;54;20027;-85
2021/09/26 14:43:14;;;;;;;8.20;6.25;;;;;;;19.65;81.63;99850.47;1106954;39;21029;-83
2021/09/26 14:58:50;;;;;;;11.27;8.10;;;;;;;19.77;82.18;99853.41;1088034;54;20015;-83
2021/09/26 14:59:52;;;;;;;9.13;7.18;;;;;;;19.77;81.93;99854.22;1088253;54;20021;-83
2021/09/26 15:00:57;;;;;;;9.05;7.63;;;;;;;19.75;82.01;99848.16;1090224;31;20691;-82
2021/09/26 15:02:02;;;;;;;8.40;6.28;;;;;;;19.78;82.33;99845.03;1088122;54;20042;-82
2021/09/26 15:03:06;;;;;;;9.45;7.57;;;;;;;19.78;82.61;99850.47;1088023;54;20038;-81
2021/09/26 15:04:16;;;;;;;9.70;7.28;;;;;;;19.78;82.69;99845.03;1088211;54;20820;-80
2021/09/26 15:05:21;;;;;;;11.48;8.10;;;;;;;19.74;82.58;99840.25;1087963;54;20023;-80
2021/09/26 15:06:29;;;;;;;9.75;7.68;;;;;;;19.75;83.30;99848.16;1087606;54;20749;-80
2021/09/26 15:07:31;;;;;;;11.55;7.68;;;;;;;19.73;83.07;99846.72;1087714;54;20045;-81
2021/09/26 15:08:36;;;;;;;9.13;7.57;;;;;;;19.76;82.90;99843.59;1088078;54;20019;-82
2021/09/26 15:09:40;;;;;;;10.30;8.40;;;;;;;19.70;83.46;99857.97;1088102;54;20752;-82
2021/09/26 15:10:42;;;;;;;10.68;8.32;;;;;;;19.57;83.84;99870.50;1087979;54;20042;-82
2021/09/26 15:11:46;;;;;;;11.82;8.43;;;;;;;19.52;84.52;99866.75;1088166;54;20034;-83
2021/09/26 15:34:00;;;;;;;11.93;8.27;;;;;;;19.63;82.54;99896.78;1087629;54;20086;-83
2021/09/26 15:35:06;;;;;;;12.95;8.15;;;;;;;19.60;82.88;99894.47;1088099;54;20033;-81
2021/09/26 15:36:10;;;;;;;9.07;7.72;;;;;;;19.63;82.50;99896.78;1088082;54;20034;-83
2021/09/26 15:37:14;;;;;;;12.68;8.35;;;;;;;19.59;82.60;99894.69;1087934;54;20819;-82
2021/09/26 15:38:19;;;;;;;9.93;7.45;;;;;;;19.63;82.73;99896.78;1088303;54;20041;-84
2021/09/26 16:00:40;;;;;;;10.25;7.75;;;;;;;19.66;83.09;99903.66;1087907;54;20054;-82
2021/09/26 16:01:49;;;;;;;9.30;7.75;;;;;;;19.72;83.32;99905.53;1088124;54;20042;-83
2021/09/26 16:02:51;;;;;;;11.38;7.50;;;;;;;19.78;83.03;99904.72;1088062;54;20031;-83
2021/09/26 16:04:06;;;;;;;10.23;8.02;;;;;;;19.78;83.74;99910.13;1088115;54;20042;-80
2021/09/26 16:05:09;;;;;;;8.23;7.30;;;;;;;19.83;83.28;99908.69;1088186;54;20038;-82
2021/09/26 16:06:14;;;;;;;10.10;7.88;;;;;;;19.88;83.24;99908.91;1088136;54;20038;-83
2021/09/26 16:07:16;;;;;;;9.63;7.97;;;;;;;19.90;82.99;99906.81;1088229;54;20038;-82
2021/09/26 16:08:21;;;;;;;9.43;7.70;;;;;;;19.95;82.87;99907.88;1088376;54;20034;-84
2021/09/26 16:09:26;;;;;;;9.35;7.25;;;;;;;19.97;82.84;99901.41;1092989;39;20489;-84
2021/09/26 16:10:31;;;;;;;8.80;7.82;;;;;;;19.92;83.26;99904.75;1093279;31;20738;-83
2021/09/26 16:11:42;;;;;;;10.65;9.23;;;;;;;19.87;83.77;99907.22;1088436;54;20046;-85
2021/09/26 16:17:29;;;;;;;12.10;9.35;;;;;;;19.93;84.01;99906.41;1090745;39;20772;-82
2021/09/26 16:18:34;;;;;;;11.38;10.18;;;;;;;19.93;83.71;99895.56;1088401;54;20041;-83
2021/09/26 16:19:36;;;;;;;10.85;9.48;;;;;;;19.92;83.83;99899.31;1088407;54;20030;-84
2021/09/26 16:20:42;;;;;;;11.35;9.20;;;;;;;19.94;83.81;99900.78;1088339;54;20029;-82
2021/09/26 16:21:47;;;;;;;12.23;10.23;;;;;;;19.96;83.80;99895.13;1088494;54;20058;-84
2021/09/26 16:22:59;;;;;;;10.65;9.27;;;;;;;19.97;84.07;99896.78;1088524;54;20039;-85
2021/09/26 16:24:05;;;;;;;10.82;8.93;;;;;;;19.95;83.74;99899.72;1088528;54;20030;-84
2021/09/26 16:25:09;;;;;;;11.00;8.57;;;;;;;19.99;83.90;99897.44;1088540;54;20027;-85
2021/09/26 16:26:16;;;;;;;10.60;8.75;;;;;;;19.96;83.85;99897.84;1088468;54;20033;-86
2021/09/26 16:27:19;;;;;;;12.90;10.32;;;;;;;19.97;83.46;99890.56;1088500;54;20026;-84
2021/09/26 16:28:29;;;;;;;10.38;9.27;;;;;;;19.94;83.53;99889.91;1088540;54;20025;-83
2021/09/26 17:19:27;;;;;;;13.10;11.23;;;;;;;19.24;84.11;99954.47;1094493;39;21084;-82
2021/09/26 17:20:41;;;;;;;13.55;11.05;;;;;;;19.25;84.12;99964.28;1082276;54;20067;-85
2021/09/26 17:21:58;;;;;;;11.98;10.65;;;;;;;19.24;83.96;99958.00;1088493;54;20074;-85
2021/09/26 17:38:22;;;;;;;12.60;10.25;;;;;;;19.13;83.30;99974.84;1087688;39;21049;-80
2021/09/26 17:39:24;;;;;;;11.75;10.55;;;;;;;19.08;83.53;99974.63;1087927;54;20042;-79
2021/09/26 17:40:31;;;;;;;13.07;10.15;;;;;;;19.12;83.77;99984.84;1087425;47;20053;-79
2021/09/26 17:41:34;;;;;;;13.38;10.52;;;;;;;19.11;83.69;99980.47;1087576;54;20034;-80
2021/09/26 17:42:39;;;;;;;10.82;9.82;;;;;;;19.16;83.45;99985.28;1088217;39;20574;-79
2021/09/26 17:43:44;;;;;;;12.68;9.98;;;;;;;19.21;83.29;99984.69;1087529;54;20057;-80
2021/09/26 17:44:46;;;;;;;10.93;9.80;;;;;;;19.19;83.28;99987.59;1087487;54;20065;-80
2021/09/26 17:45:53;;;;;;;13.30;9.88;;;;;;;19.16;83.35;99980.72;1087617;54;20627;-80
2021/09/26 17:46:58;;;;;;;11.18;9.68;;;;;;;19.22;83.10;99989.91;1087567;54;20311;-79
2021/09/26 17:48:01;;;;;;;11.35;9.93;;;;;;;19.21;83.31;99990.94;1087602;54;20038;-81
2021/09/26 17:49:05;;;;;;;13.70;10.70;;;;;;;19.29;83.05;99993.47;1087902;54;20545;-80
2021/09/26 17:50:09;;;;;;;10.70;9.60;;;;;;;19.28;83.17;99999.06;1087544;54;20022;-80
2021/09/26 17:51:16;;;;;;;10.77;9.38;;;;;;;19.27;83.12;99998.25;1087963;54;20042;-81
2021/09/26 17:52:22;;;;;;;12.52;9.93;;;;;;;19.28;82.98;99997.22;1088147;54;20019;-83
2021/09/26 17:53:29;;;;;;;11.18;9.02;;;;;;;19.24;83.29;100000.53;1087916;54;20030;-81
2021/09/26 17:54:34;;;;;;;10.80;9.73;;;;;;;19.18;83.47;99996.75;1087809;54;20057;-81
2021/09/26 17:55:36;;;;;;;10.10;8.98;;;;;;;19.20;83.46;100005.53;1087963;54;20049;-82
2021/09/26 17:56:41;;;;;;;11.55;10.35;;;;;;;19.18;83.18;99997.59;1089682;39;20668;-82
2021/09/26 17:57:44;;;;;;;12.13;9.05;;;;;;;19.27;82.86;99997.44;1088072;54;20018;-84
2021/09/26 17:58:48;;;;;;;13.18;10.38;;;;;;;19.27;82.97;99997.44;1090147;46;20038;-81
2021/09/26 17:59:52;;;;;;;12.82;9.93;;;;;;;19.27;83.05;99997.44;1088097;54;20042;-80
2021/09/26 18:00:59;;;;;;;10.52;9.25;;;;;;;19.26;82.88;100001.19;1089219;47;20635;-82
2021/09/26 18:02:01;;;;;;;12.30;10.25;;;;;;;19.10;83.61;99999.66;1088174;54;20091;-83
2021/09/26 18:03:07;;;;;;;12.13;9.98;;;;;;;19.10;83.60;100000.47;1088012;54;20042;-82
2021/09/26 18:04:12;;;;;;;11.15;9.88;;;;;;;19.06;83.61;99995.66;1088423;47;20031;-82
2021/09/26 18:05:17;;;;;;;11.85;10.43;;;;;;;19.04;83.60;100001.28;1090161;39;20524;-81
2021/09/26 18:06:22;;;;;;;11.35;10.13;;;;;;;19.08;83.12;99991.72;1088485;54;20042;-82
2021/09/26 18:07:23;;;;;;;11.13;9.60;;;;;;;19.13;83.14;99997.38;1088579;54;20042;-81
2021/09/26 18:08:31;;;;;;;10.90;9.80;;;;;;;19.16;82.98;99999.69;1091362;46;20041;-80
2021/09/26 18:09:33;;;;;;;10.80;9.60;;;;;;;19.20;82.82;99993.84;1088542;47;20022;-81
2021/09/26 18:10:42;;;;;;;11.32;9.57;;;;;;;19.18;82.64;99989.47;1088422;54;20058;-80
2021/09/26 18:11:47;;;;;;;12.52;10.63;;;;;;;19.12;83.28;99997.59;1088605;54;20022;-82
2021/09/26 18:12:49;;;;;;;11.57;9.80;;;;;;;19.13;82.79;99997.38;1088450;54;20030;-82
2021/09/26 18:13:54;;;;;;;10.68;9.57;;;;;;;19.14;82.98;99998.19;1088540;54;20023;-82
2021/09/26 18:14:56;;;;;;;10.88;9.77;;;;;;;19.12;82.84;99998.41;1088477;54;20025;-83
2021/09/26 18:16:09;;;;;;;11.52;9.75;;;;;;;19.07;83.44;100000.91;1088601;54;20053;-82